Flight Track Log - Related Links

Times and Time Zones

All times are in EST time to prevent confusion due to time zone crossing. See the FSR411 flight status page for this flight to view local times or setup timezone preferences in your user account.


Time Position Orientation Groundspeed Altitude Reporting Facility
EST Latitude Longitude Course Direction KTS MPH feet Rate Location/Type
Wed 03:20:48 PM 35.2283 -80.9394 356° North 163 188 1,700  Level Atlanta Center
Wed 03:21:49 PM 35.2869 -80.9447 356° North 237 273 5,000 3,128 Climbing Atlanta Center
Wed 03:22:45 PM 35.3014 -81.0131 285° West 262 302 7,800 2,449 Climbing Atlanta Center
Wed 03:23:27 PM 35.2819 -81.0747 249° West 258 297 9,000 2,866 Climbing Atlanta Center
Wed 03:23:52 PM 35.2761 -81.0978 253° West 258 297 11,000 4,100 Climbing Atlanta Center
Wed 03:24:27 PM 35.2608 -81.1517 251° West 283 326 13,100 1,895 Climbing Atlanta Center
Wed 03:25:27 PM 35.2400 -81.2417 254° West 296 341 14,000 950 Climbing Atlanta Center
Wed 03:26:27 PM 35.2169 -81.3314 253° West 285 328 15,000 2,800 Climbing Atlanta Center
Wed 03:28:27 PM 35.1731 -81.5208 254° West 285 328 22,400 2,667 Climbing Atlanta Center
Wed 03:29:27 PM 35.1458 -81.6283 253° West 301 346 23,000 600 Climbing Atlanta Center
Wed 03:30:27 PM 35.1292 -81.7353 259° West 312 359 23,600 1,400 Climbing Atlanta Center
Wed 03:31:27 PM 35.1231 -81.8525 266° West 334 384 25,800 2,250 Climbing Atlanta Center
Wed 03:32:27 PM 35.1144 -81.9719 265° West 352 405 28,100 2,300 Climbing Atlanta Center
Wed 03:33:27 PM 35.1061 -82.0889 265° West 352 405 30,400 2,200 Climbing Atlanta Center
Wed 03:34:27 PM 35.0953 -82.2033 263° West 352 405 32,500 1,700 Climbing Atlanta Center
Wed 03:35:27 PM 35.1072 -82.3072 278° West 323 372 33,800 750 Climbing Atlanta Center
Wed 03:36:27 PM 35.1567 -82.4078 301° West 333 383 34,000 100 Climbing Atlanta Center
Wed 03:37:27 PM 35.2122 -82.5111 303° West 338 389 34,000 600 Level Atlanta Center
Wed 03:38:27 PM 35.2550 -82.5967 301° West 345 397 35,200 1,200 Climbing Atlanta Center
Wed 03:39:27 PM 35.3061 -82.6925 303° West 345 397 36,400 1,100 Climbing Atlanta Center
Wed 03:40:27 PM 35.3553 -82.7936 301° West 340 391 37,400 1,000 Climbing Atlanta Center
Wed 03:41:27 PM 35.4061 -82.8897 303° West 340 391 38,400 950 Climbing Atlanta Center
Wed 03:42:27 PM 35.4550 -82.9933 300° West 340 391 39,300 800 Climbing Atlanta Center
Wed 03:43:27 PM 35.5142 -83.0869 308° West 345 397 40,000 350 Climbing Atlanta Center
Wed 03:44:27 PM 35.5900 -83.1678 319° Northwest 357 411 40,000  Level Atlanta Center
Wed 03:45:27 PM 35.6697 -83.2514 320° Northwest 370 426 40,000  Level Atlanta Center
Wed 03:46:27 PM 35.7497 -83.3350 320° Northwest 377 434 40,000  Level Atlanta Center
Wed 03:47:27 PM 35.8294 -83.4189 320° Northwest 377 434 40,000  Level Atlanta Center
Wed 03:48:27 PM 35.9069 -83.5031 319° Northwest 377 434 40,000  Level Atlanta Center
Wed 03:49:27 PM 35.9844 -83.5872 319° Northwest 377 434 40,000  Level Atlanta Center
Wed 03:50:59 PM 36.1097 -83.7183 320° Northwest 371 427 40,000  Level Indianapolis Center
Wed 03:52:01 PM 36.1861 -83.8006 319° Northwest 368 423 40,000  Level Indianapolis Center
Wed 03:53:03 PM 36.2636 -83.8847 319° Northwest 368 423 40,000  Level Indianapolis Center
Wed 03:54:06 PM 36.3403 -83.9678 319° Northwest 368 423 40,000  Level Indianapolis Center
Wed 03:55:08 PM 36.4322 -84.0675 319° Northwest 368 423 40,000  Level Indianapolis Center
Wed 03:56:10 PM 36.5094 -84.1517 319° Northwest 368 423 40,000  Level Indianapolis Center
Wed 03:57:12 PM 36.5828 -84.2322 319° Northwest 368 423 40,000  Level Indianapolis Center
Wed 03:58:14 PM 36.6594 -84.3164 319° Northwest 368 423 40,000  Level Indianapolis Center
Wed 03:59:16 PM 36.7494 -84.4150 319° Northwest 368 423 40,000  Level Indianapolis Center
Wed 04:00:18 PM 36.8272 -84.5008 319° Northwest 368 423 40,000  Level Indianapolis Center
Wed 04:01:20 PM 36.9086 -84.5919 318° Northwest 369 425 40,000  Level Indianapolis Center
Wed 04:02:22 PM 36.9858 -84.6769 319° Northwest 370 426 40,000  Level Indianapolis Center
Wed 04:03:24 PM 37.0608 -84.7614 318° Northwest 371 427 40,000  Level Indianapolis Center
Wed 04:04:27 PM 37.1392 -84.8475 319° Northwest 371 427 40,000  Level Indianapolis Center
Wed 04:05:29 PM 37.2292 -84.9497 318° Northwest 372 428 40,000  Level Indianapolis Center
Wed 04:06:31 PM 37.3075 -85.0369 318° Northwest 373 429 40,000  Level Indianapolis Center
Wed 04:07:33 PM 37.3853 -85.1244 318° Northwest 373 429 40,000  Level Indianapolis Center
Wed 04:08:35 PM 37.4625 -85.2111 318° Northwest 373 429 40,000  Level Indianapolis Center
Wed 04:09:37 PM 37.5394 -85.3000 318° Northwest 373 429 40,000  Level Indianapolis Center
Wed 04:10:39 PM 37.6328 -85.4006 320° Northwest 375 432 40,000  Level Indianapolis Center
Wed 04:11:41 PM 37.7100 -85.4878 318° Northwest 375 432 40,000  Level Indianapolis Center
Wed 04:12:43 PM 37.7878 -85.5814 316° Northwest 374 430 40,000  Level Indianapolis Center
Wed 04:13:45 PM 37.8661 -85.6692 319° Northwest 373 429 40,000  Level Indianapolis Center
Wed 04:14:48 PM 37.9417 -85.7578 317° Northwest 374 430 40,000  Level Indianapolis Center
Wed 04:15:50 PM 38.0181 -85.8478 317° Northwest 373 429 40,000  Level Indianapolis Center
Wed 04:16:52 PM 38.0958 -85.9375 318° Northwest 375 432 40,000  Level Indianapolis Center
Wed 04:17:54 PM 38.1744 -86.0272 318° Northwest 376 433 40,000  Level Indianapolis Center
Wed 04:18:56 PM 38.2506 -86.1161 317° Northwest 375 432 40,000 -194 Level Indianapolis Center
Wed 04:19:58 PM 38.3433 -86.2244 318° Northwest 375 432 39,600 -823 Descending Indianapolis Center
Wed 04:21:00 PM 38.4197 -86.3136 318° Northwest 375 432 38,300 -1,355 Descending Indianapolis Center
Wed 04:22:02 PM 38.4972 -86.4042 318° Northwest 375 432 36,800 -1,452 Descending Indianapolis Center
Wed 04:23:04 PM 38.5747 -86.4967 317° Northwest 376 433 35,300 -1,452 Descending Indianapolis Center
Wed 04:24:06 PM 38.6511 -86.5869 317° Northwest 378 435 33,800 -1,440 Descending Indianapolis Center
Wed 04:25:09 PM 38.7261 -86.6761 317° Northwest 371 427 32,300 -1,584 Descending Indianapolis Center
Wed 04:26:11 PM 38.8169 -86.7847 317° Northwest 371 427 30,500 -1,597 Descending Indianapolis Center
Wed 04:27:13 PM 38.8953 -86.8767 318° Northwest 375 432 29,000 -1,500 Descending Indianapolis Center
Wed 04:28:15 PM 38.9739 -86.9708 317° Northwest 380 437 27,400 -1,645 Descending Indianapolis Center
Wed 04:29:17 PM 39.0531 -87.0656 317° Northwest 383 441 25,600 -1,839 Descending Indianapolis Center
Wed 04:30:19 PM 39.1358 -87.1667 317° Northwest 384 442 23,600 -1,790 Descending Indianapolis Center
Wed 04:31:21 PM 39.2111 -87.2556 318° Northwest 374 430 21,900 -1,694 Descending Indianapolis Center
Wed 04:32:23 PM 39.2831 -87.3442 316° Northwest 362 417 20,100 -1,742 Descending Indianapolis Center
Wed 04:33:25 PM 39.3564 -87.4344 316° Northwest 362 417 18,300 -1,839 Descending Indianapolis Center
Wed 04:34:27 PM 39.4411 -87.5367 317° Northwest 352 405 16,300 -1,984 Descending Indianapolis Center
Wed 04:35:29 PM 39.5092 -87.6208 316° Northwest 342 394 14,200 -1,968 Descending Indianapolis Center
Wed 04:36:32 PM 39.5742 -87.7006 317° Northwest 328 377 12,200 -1,440 Descending Indianapolis Center
Wed 04:37:34 PM 39.6378 -87.7772 317° Northwest 317 365 11,200 -1,210 Descending Indianapolis Center
Wed 04:38:36 PM 39.6922 -87.8458 316° Northwest 283 326 9,700 -1,645 Descending Indianapolis Center
Wed 04:39:38 PM 39.7408 -87.9042 317° Northwest 249 287 7,800 -1,935 Descending Indianapolis Center
Wed 04:40:40 PM 39.7900 -87.9594 319° Northwest 237 273 5,700 -2,032 Descending Indianapolis Center
Wed 04:42:00 PM 39.8552 -88.0647 309° West  Level FlightAware Approximate
Wed 04:49:00 PM 40.0333 -88.2667 90° East  Level FlightAware Approximate
Wed 04:50:00 PM 40.0388 -88.2778 90° East  Level Estimated
Wed 04:51:00 PM 40.0388 -88.2778 90° East  Level Estimated
Wed 04:52:00 PM 40.0388 -88.2778 90° East  Level Estimated
Wed 04:53:00 PM 40.0388 -88.2778 90° East  Level Estimated
Wed 04:54:00 PM 40.0388 -88.2778 90° East  Level Estimated

Login

Don't have an account? Register now (free) for customized features, flight alerts, and more!